sensor_id;sensor_type;location;lat;lon;timestamp;temperature;humidity
47857;DHT22;33618;49.972;8.242;2023-04-29T00:01:15;12.10;99.90
47857;DHT22;33618;49.972;8.242;2023-04-29T00:03:42;12.10;99.90
47857;DHT22;33618;49.972;8.242;2023-04-29T00:06:10;12.20;99.90
47857;DHT22;33618;49.972;8.242;2023-04-29T00:08:37;12.20;99.90
47857;DHT22;33618;49.972;8.242;2023-04-29T00:11:04;12.10;99.90
47857;DHT22;33618;49.972;8.242;2023-04-29T00:13:31;12.20;99.90
47857;DHT22;33618;49.972;8.242;2023-04-29T00:15:58;12.20;99.90
47857;DHT22;33618;49.972;8.242;2023-04-29T00:18:25;12.20;99.90
47857;DHT22;33618;49.972;8.242;2023-04-29T00:20:52;12.10;99.90
47857;DHT22;33618;49.972;8.242;2023-04-29T00:23:19;12.10;99.90
47857;DHT22;33618;49.972;8.242;2023-04-29T00:25:46;12.10;99.90
47857;DHT22;33618;49.972;8.242;2023-04-29T00:28:13;12.10;99.90
47857;DHT22;33618;49.972;8.242;2023-04-29T00:30:39;12.10;99.90
47857;DHT22;33618;49.972;8.242;2023-04-29T00:33:06;12.10;99.90
47857;DHT22;33618;49.972;8.242;2023-04-29T00:35:33;12.00;99.90
47857;DHT22;33618;49.972;8.242;2023-04-29T00:38:00;12.00;99.90
47857;DHT22;33618;49.972;8.242;2023-04-29T00:40:28;11.90;99.90
47857;DHT22;33618;49.972;8.242;2023-04-29T00:42:54;11.90;99.90
47857;DHT22;33618;49.972;8.242;2023-04-29T00:45:21;11.80;99.90
47857;DHT22;33618;49.972;8.242;2023-04-29T00:47:49;11.80;99.90
47857;DHT22;33618;49.972;8.242;2023-04-29T00:50:16;11.80;99.90
47857;DHT22;33618;49.972;8.242;2023-04-29T00:52:44;11.90;99.90
47857;DHT22;33618;49.972;8.242;2023-04-29T00:55:12;11.90;99.90
47857;DHT22;33618;49.972;8.242;2023-04-29T00:57:39;11.90;99.90
47857;DHT22;33618;49.972;8.242;2023-04-29T01:00:06;11.80;99.90
47857;DHT22;33618;49.972;8.242;2023-04-29T01:02:36;11.80;99.90
47857;DHT22;33618;49.972;8.242;2023-04-29T01:05:03;11.80;99.90
47857;DHT22;33618;49.972;8.242;2023-04-29T01:07:54;11.80;99.90
47857;DHT22;33618;49.972;8.242;2023-04-29T01:10:27;11.80;99.90
47857;DHT22;33618;49.972;8.242;2023-04-29T01:16:03;11.70;99.90
47857;DHT22;33618;49.972;8.242;2023-04-29T01:21:00;11.70;99.90
47857;DHT22;33618;49.972;8.242;2023-04-29T01:23:28;11.70;99.90
47857;DHT22;33618;49.972;8.242;2023-04-29T01:25:56;11.60;99.90
47857;DHT22;33618;49.972;8.242;2023-04-29T01:28:51;11.50;99.90
47857;DHT22;33618;49.972;8.242;2023-04-29T01:31:50;11.50;99.90
47857;DHT22;33618;49.972;8.242;2023-04-29T01:34:34;11.50;99.90
47857;DHT22;33618;49.972;8.242;2023-04-29T01:39:59;11.30;99.90
47857;DHT22;33618;49.972;8.242;2023-04-29T01:42:43;11.30;99.90
47857;DHT22;33618;49.972;8.242;2023-04-29T01:45:14;11.20;99.90
47857;DHT22;33618;49.972;8.242;2023-04-29T01:47:45;11.20;99.90
47857;DHT22;33618;49.972;8.242;2023-04-29T01:50:13;11.20;99.90
47857;DHT22;33618;49.972;8.242;2023-04-29T01:52:40;11.20;99.90
47857;DHT22;33618;49.972;8.242;2023-04-29T01:55:07;11.20;99.90
47857;DHT22;33618;49.972;8.242;2023-04-29T01:57:33;11.20;99.90
47857;DHT22;33618;49.972;8.242;2023-04-29T02:00:00;11.20;99.90
47857;DHT22;33618;49.972;8.242;2023-04-29T02:02:27;11.10;99.90
47857;DHT22;33618;49.972;8.242;2023-04-29T02:04:54;11.10;99.90
47857;DHT22;33618;49.972;8.242;2023-04-29T02:07:21;11.10;99.90
47857;DHT22;33618;49.972;8.242;2023-04-29T02:09:49;11.00;99.90
47857;DHT22;33618;49.972;8.242;2023-04-29T02:12:16;11.00;99.90
47857;DHT22;33618;49.972;8.242;2023-04-29T02:14:43;11.00;99.90
47857;DHT22;33618;49.972;8.242;2023-04-29T02:17:10;11.10;99.90
47857;DHT22;33618;49.972;8.242;2023-04-29T02:19:37;11.10;99.90
47857;DHT22;33618;49.972;8.242;2023-04-29T02:22:03;11.20;99.90
47857;DHT22;33618;49.972;8.242;2023-04-29T02:24:30;11.20;99.90
47857;DHT22;33618;49.972;8.242;2023-04-29T02:26:57;11.30;99.90
47857;DHT22;33618;49.972;8.242;2023-04-29T02:29:25;11.30;99.90
47857;DHT22;33618;49.972;8.242;2023-04-29T02:31:52;11.40;99.90
47857;DHT22;33618;49.972;8.242;2023-04-29T02:34:19;11.40;99.90
47857;DHT22;33618;49.972;8.242;2023-04-29T02:36:46;11.50;99.90
47857;DHT22;33618;49.972;8.242;2023-04-29T02:39:13;11.50;99.90
47857;DHT22;33618;49.972;8.242;2023-04-29T02:41:40;11.50;99.90
47857;DHT22;33618;49.972;8.242;2023-04-29T02:44:07;11.50;99.90
47857;DHT22;33618;49.972;8.242;2023-04-29T02:46:34;11.50;99.90
47857;DHT22;33618;49.972;8.242;2023-04-29T02:49:02;11.50;99.90
47857;DHT22;33618;49.972;8.242;2023-04-29T02:51:29;11.50;99.90
47857;DHT22;33618;49.972;8.242;2023-04-29T02:53:56;11.60;99.90
47857;DHT22;33618;49.972;8.242;2023-04-29T02:56:23;11.60;99.90
47857;DHT22;33618;49.972;8.242;2023-04-29T02:58:49;11.70;99.90
47857;DHT22;33618;49.972;8.242;2023-04-29T03:01:16;11.70;99.90
47857;DHT22;33618;49.972;8.242;2023-04-29T03:03:43;11.80;99.90
47857;DHT22;33618;49.972;8.242;2023-04-29T03:06:10;11.80;99.90
47857;DHT22;33618;49.972;8.242;2023-04-29T03:08:37;11.80;99.90
47857;DHT22;33618;49.972;8.242;2023-04-29T03:11:04;11.90;99.90
47857;DHT22;33618;49.972;8.242;2023-04-29T03:13:31;11.80;99.90
47857;DHT22;33618;49.972;8.242;2023-04-29T03:15:57;11.90;99.90
47857;DHT22;33618;49.972;8.242;2023-04-29T03:18:26;11.90;99.90
47857;DHT22;33618;49.972;8.242;2023-04-29T03:20:53;11.90;99.90
47857;DHT22;33618;49.972;8.242;2023-04-29T03:23:19;11.90;99.90
47857;DHT22;33618;49.972;8.242;2023-04-29T03:25:47;12.00;99.90
47857;DHT22;33618;49.972;8.242;2023-04-29T03:28:15;12.00;99.90
47857;DHT22;33618;49.972;8.242;2023-04-29T03:30:42;12.00;99.90
47857;DHT22;33618;49.972;8.242;2023-04-29T03:33:08;12.00;99.90
47857;DHT22;33618;49.972;8.242;2023-04-29T03:35:35;12.10;99.90
47857;DHT22;33618;49.972;8.242;2023-04-29T03:38:02;12.00;99.90
47857;DHT22;33618;49.972;8.242;2023-04-29T03:40:29;12.00;99.90
47857;DHT22;33618;49.972;8.242;2023-04-29T03:42:56;12.10;99.90
47857;DHT22;33618;49.972;8.242;2023-04-29T03:45:23;12.10;99.90
47857;DHT22;33618;49.972;8.242;2023-04-29T03:47:50;12.10;99.90
47857;DHT22;33618;49.972;8.242;2023-04-29T03:50:18;12.10;99.90
47857;DHT22;33618;49.972;8.242;2023-04-29T03:52:45;12.00;99.90
47857;DHT22;33618;49.972;8.242;2023-04-29T03:55:12;12.00;99.90
47857;DHT22;33618;49.972;8.242;2023-04-29T03:57:39;12.00;99.90
47857;DHT22;33618;49.972;8.242;2023-04-29T04:00:08;12.00;99.90
47857;DHT22;33618;49.972;8.242;2023-04-29T04:02:35;12.00;99.90
47857;DHT22;33618;49.972;8.242;2023-04-29T04:05:02;12.00;99.90
47857;DHT22;33618;49.972;8.242;2023-04-29T04:07:29;12.00;99.90
47857;DHT22;33618;49.972;8.242;2023-04-29T04:09:56;12.10;99.90
47857;DHT22;33618;49.972;8.242;2023-04-29T04:12:23;12.10;99.90
47857;DHT22;33618;49.972;8.242;2023-04-29T04:14:50;12.10;99.90
47857;DHT22;33618;49.972;8.242;2023-04-29T04:17:17;12.10;99.90
47857;DHT22;33618;49.972;8.242;2023-04-29T04:19:44;12.10;99.90
47857;DHT22;33618;49.972;8.242;2023-04-29T04:22:10;12.00;99.90
47857;DHT22;33618;49.972;8.242;2023-04-29T04:24:38;12.00;99.90
47857;DHT22;33618;49.972;8.242;2023-04-29T04:27:05;12.10;99.90
47857;DHT22;33618;49.972;8.242;2023-04-29T04:29:32;12.00;99.90
47857;DHT22;33618;49.972;8.242;2023-04-29T04:31:59;12.10;99.90
47857;DHT22;33618;49.972;8.242;2023-04-29T04:34:26;12.10;99.90
47857;DHT22;33618;49.972;8.242;2023-04-29T04:36:53;12.10;99.90
47857;DHT22;33618;49.972;8.242;2023-04-29T04:39:19;12.20;99.90
47857;DHT22;33618;49.972;8.242;2023-04-29T04:41:46;12.20;99.90
47857;DHT22;33618;49.972;8.242;2023-04-29T04:44:13;12.20;99.90
47857;DHT22;33618;49.972;8.242;2023-04-29T04:46:40;12.20;99.90
47857;DHT22;33618;49.972;8.242;2023-04-29T04:49:08;12.20;99.90
47857;DHT22;33618;49.972;8.242;2023-04-29T04:51:34;12.20;99.90
47857;DHT22;33618;49.972;8.242;2023-04-29T04:54:02;12.10;99.90
47857;DHT22;33618;49.972;8.242;2023-04-29T04:56:29;12.10;99.90
47857;DHT22;33618;49.972;8.242;2023-04-29T04:58:56;12.10;99.90
47857;DHT22;33618;49.972;8.242;2023-04-29T05:01:23;12.10;99.90
47857;DHT22;33618;49.972;8.242;2023-04-29T05:03:49;12.10;99.90
47857;DHT22;33618;49.972;8.242;2023-04-29T05:06:16;12.00;99.90
47857;DHT22;33618;49.972;8.242;2023-04-29T05:08:43;12.00;99.90
47857;DHT22;33618;49.972;8.242;2023-04-29T05:11:17;12.00;99.90
47857;DHT22;33618;49.972;8.242;2023-04-29T05:13:44;12.00;99.90
47857;DHT22;33618;49.972;8.242;2023-04-29T05:16:11;12.00;99.90
47857;DHT22;33618;49.972;8.242;2023-04-29T05:18:38;12.00;99.90
47857;DHT22;33618;49.972;8.242;2023-04-29T05:21:05;12.10;99.90
47857;DHT22;33618;49.972;8.242;2023-04-29T05:23:31;12.10;99.90
47857;DHT22;33618;49.972;8.242;2023-04-29T05:25:58;12.10;99.90
47857;DHT22;33618;49.972;8.242;2023-04-29T05:28:25;12.10;99.90
47857;DHT22;33618;49.972;8.242;2023-04-29T05:30:54;12.00;99.90
47857;DHT22;33618;49.972;8.242;2023-04-29T05:33:20;12.00;99.90
47857;DHT22;33618;49.972;8.242;2023-04-29T05:35:47;12.00;99.90
47857;DHT22;33618;49.972;8.242;2023-04-29T05:38:14;11.90;99.90
47857;DHT22;33618;49.972;8.242;2023-04-29T05:40:41;11.90;99.90
47857;DHT22;33618;49.972;8.242;2023-04-29T05:43:08;11.80;99.90
47857;DHT22;33618;49.972;8.242;2023-04-29T05:45:35;11.80;99.90
47857;DHT22;33618;49.972;8.242;2023-04-29T05:48:01;11.80;99.90
47857;DHT22;33618;49.972;8.242;2023-04-29T05:50:28;11.80;99.90
47857;DHT22;33618;49.972;8.242;2023-04-29T05:52:55;11.80;99.90
47857;DHT22;33618;49.972;8.242;2023-04-29T05:55:22;11.80;99.90
47857;DHT22;33618;49.972;8.242;2023-04-29T05:57:49;11.80;99.90
47857;DHT22;33618;49.972;8.242;2023-04-29T06:00:16;11.80;99.90
47857;DHT22;33618;49.972;8.242;2023-04-29T06:02:43;11.90;99.90
47857;DHT22;33618;49.972;8.242;2023-04-29T06:05:24;12.00;99.90
47857;DHT22;33618;49.972;8.242;2023-04-29T06:07:51;12.00;99.90
47857;DHT22;33618;49.972;8.242;2023-04-29T06:10:19;12.10;99.90
47857;DHT22;33618;49.972;8.242;2023-04-29T06:12:46;12.20;99.90
47857;DHT22;33618;49.972;8.242;2023-04-29T06:15:16;12.20;99.90
47857;DHT22;33618;49.972;8.242;2023-04-29T06:17:43;12.20;99.90
47857;DHT22;33618;49.972;8.242;2023-04-29T06:20:11;12.30;99.90
47857;DHT22;33618;49.972;8.242;2023-04-29T06:22:38;12.40;99.90
47857;DHT22;33618;49.972;8.242;2023-04-29T06:25:05;12.40;99.90
47857;DHT22;33618;49.972;8.242;2023-04-29T06:27:32;12.50;99.90
47857;DHT22;33618;49.972;8.242;2023-04-29T06:29:59;12.60;99.90
47857;DHT22;33618;49.972;8.242;2023-04-29T06:32:31;12.60;99.90
47857;DHT22;33618;49.972;8.242;2023-04-29T06:34:57;12.60;99.90
47857;DHT22;33618;49.972;8.242;2023-04-29T06:37:24;12.60;99.90
47857;DHT22;33618;49.972;8.242;2023-04-29T06:39:51;12.60;99.90
47857;DHT22;33618;49.972;8.242;2023-04-29T06:42:18;12.70;99.90
47857;DHT22;33618;49.972;8.242;2023-04-29T06:44:46;12.70;99.90
47857;DHT22;33618;49.972;8.242;2023-04-29T06:47:14;12.70;99.90
47857;DHT22;33618;49.972;8.242;2023-04-29T06:49:41;12.70;99.90
47857;DHT22;33618;49.972;8.242;2023-04-29T06:52:09;12.70;99.90
47857;DHT22;33618;49.972;8.242;2023-04-29T06:54:36;12.70;99.90
47857;DHT22;33618;49.972;8.242;2023-04-29T06:57:02;12.70;99.90
47857;DHT22;33618;49.972;8.242;2023-04-29T06:59:29;12.80;99.90
47857;DHT22;33618;49.972;8.242;2023-04-29T07:01:56;12.80;99.90
47857;DHT22;33618;49.972;8.242;2023-04-29T07:04:23;12.80;99.90
47857;DHT22;33618;49.972;8.242;2023-04-29T07:06:50;12.90;99.90
47857;DHT22;33618;49.972;8.242;2023-04-29T07:09:17;12.80;99.90
47857;DHT22;33618;49.972;8.242;2023-04-29T07:11:44;12.80;99.90
47857;DHT22;33618;49.972;8.242;2023-04-29T07:14:11;12.70;99.90
47857;DHT22;33618;49.972;8.242;2023-04-29T07:16:38;12.70;99.90
47857;DHT22;33618;49.972;8.242;2023-04-29T07:19:05;12.60;99.90
47857;DHT22;33618;49.972;8.242;2023-04-29T07:21:31;12.60;99.90
47857;DHT22;33618;49.972;8.242;2023-04-29T07:23:59;12.60;99.90
47857;DHT22;33618;49.972;8.242;2023-04-29T07:26:28;12.60;99.90
47857;DHT22;33618;49.972;8.242;2023-04-29T07:28:55;12.60;99.90
47857;DHT22;33618;49.972;8.242;2023-04-29T07:31:22;12.60;99.90
47857;DHT22;33618;49.972;8.242;2023-04-29T07:33:49;12.70;99.90
47857;DHT22;33618;49.972;8.242;2023-04-29T07:36:16;12.80;99.90
47857;DHT22;33618;49.972;8.242;2023-04-29T07:38:43;12.90;99.90
47857;DHT22;33618;49.972;8.242;2023-04-29T07:41:10;13.00;99.90
47857;DHT22;33618;49.972;8.242;2023-04-29T07:43:36;13.10;99.90
47857;DHT22;33618;49.972;8.242;2023-04-29T07:46:06;13.20;99.90
47857;DHT22;33618;49.972;8.242;2023-04-29T07:48:37;13.10;99.90
47857;DHT22;33618;49.972;8.242;2023-04-29T07:51:05;13.10;99.90
47857;DHT22;33618;49.972;8.242;2023-04-29T07:53:32;13.00;99.90
47857;DHT22;33618;49.972;8.242;2023-04-29T07:56:04;13.00;99.90
47857;DHT22;33618;49.972;8.242;2023-04-29T07:58:32;12.90;99.90
47857;DHT22;33618;49.972;8.242;2023-04-29T08:01:17;12.90;99.90
47857;DHT22;33618;49.972;8.242;2023-04-29T08:03:45;13.00;99.90
47857;DHT22;33618;49.972;8.242;2023-04-29T08:06:12;13.00;99.90
47857;DHT22;33618;49.972;8.242;2023-04-29T08:08:39;13.00;99.90
47857;DHT22;33618;49.972;8.242;2023-04-29T08:11:06;12.90;99.90
47857;DHT22;33618;49.972;8.242;2023-04-29T08:13:33;12.90;99.90
47857;DHT22;33618;49.972;8.242;2023-04-29T08:16:00;12.90;99.90
47857;DHT22;33618;49.972;8.242;2023-04-29T08:18:27;12.90;99.90
47857;DHT22;33618;49.972;8.242;2023-04-29T08:20:54;12.80;99.90
47857;DHT22;33618;49.972;8.242;2023-04-29T08:23:21;12.80;99.90
47857;DHT22;33618;49.972;8.242;2023-04-29T08:25:48;12.80;99.90
47857;DHT22;33618;49.972;8.242;2023-04-29T08:28:17;12.80;99.90
47857;DHT22;33618;49.972;8.242;2023-04-29T08:30:45;12.90;99.90
47857;DHT22;33618;49.972;8.242;2023-04-29T08:33:12;13.00;99.90
47857;DHT22;33618;49.972;8.242;2023-04-29T08:35:40;13.00;99.90
47857;DHT22;33618;49.972;8.242;2023-04-29T08:38:08;12.90;99.90
47857;DHT22;33618;49.972;8.242;2023-04-29T08:40:41;12.80;99.90
47857;DHT22;33618;49.972;8.242;2023-04-29T08:43:09;12.90;99.90
47857;DHT22;33618;49.972;8.242;2023-04-29T08:45:36;12.90;99.90
47857;DHT22;33618;49.972;8.242;2023-04-29T08:48:06;12.80;99.90
47857;DHT22;33618;49.972;8.242;2023-04-29T08:50:40;12.80;99.90
47857;DHT22;33618;49.972;8.242;2023-04-29T08:53:08;12.70;99.90
47857;DHT22;33618;49.972;8.242;2023-04-29T08:55:46;12.70;99.90
47857;DHT22;33618;49.972;8.242;2023-04-29T08:58:14;12.70;99.90
47857;DHT22;33618;49.972;8.242;2023-04-29T09:00:43;12.80;99.90
47857;DHT22;33618;49.972;8.242;2023-04-29T09:05:55;12.60;99.90
47857;DHT22;33618;49.972;8.242;2023-04-29T09:08:24;12.50;99.90
47857;DHT22;33618;49.972;8.242;2023-04-29T09:10:52;12.50;99.90
47857;DHT22;33618;49.972;8.242;2023-04-29T09:13:26;12.40;99.90
47857;DHT22;33618;49.972;8.242;2023-04-29T09:15:54;12.30;99.90
47857;DHT22;33618;49.972;8.242;2023-04-29T09:18:47;12.30;99.90
47857;DHT22;33618;49.972;8.242;2023-04-29T09:23:50;12.40;99.90
47857;DHT22;33618;49.972;8.242;2023-04-29T09:26:17;12.40;99.90
47857;DHT22;33618;49.972;8.242;2023-04-29T09:28:44;12.40;99.90
47857;DHT22;33618;49.972;8.242;2023-04-29T09:31:13;12.50;99.90
47857;DHT22;33618;49.972;8.242;2023-04-29T09:33:55;12.50;99.90
47857;DHT22;33618;49.972;8.242;2023-04-29T09:39:08;12.80;99.90
47857;DHT22;33618;49.972;8.242;2023-04-29T09:41:40;12.70;99.90
47857;DHT22;33618;49.972;8.242;2023-04-29T09:44:08;12.80;99.90
47857;DHT22;33618;49.972;8.242;2023-04-29T09:46:36;13.00;99.90
47857;DHT22;33618;49.972;8.242;2023-04-29T09:49:22;12.90;99.90
47857;DHT22;33618;49.972;8.242;2023-04-29T09:51:55;13.00;99.90
47857;DHT22;33618;49.972;8.242;2023-04-29T09:54:23;13.00;99.90
47857;DHT22;33618;49.972;8.242;2023-04-29T09:56:52;13.10;99.90
47857;DHT22;33618;49.972;8.242;2023-04-29T09:59:19;13.20;99.90
47857;DHT22;33618;49.972;8.242;2023-04-29T10:01:54;13.30;99.90
47857;DHT22;33618;49.972;8.242;2023-04-29T10:04:23;13.30;99.90
47857;DHT22;33618;49.972;8.242;2023-04-29T10:06:53;13.30;99.90
47857;DHT22;33618;49.972;8.242;2023-04-29T10:09:21;13.40;99.90
47857;DHT22;33618;49.972;8.242;2023-04-29T10:11:51;13.60;99.90
47857;DHT22;33618;49.972;8.242;2023-04-29T10:14:22;13.60;99.90
47857;DHT22;33618;49.972;8.242;2023-04-29T10:17:01;13.60;99.90
47857;DHT22;33618;49.972;8.242;2023-04-29T10:19:34;13.60;99.90
47857;DHT22;33618;49.972;8.242;2023-04-29T10:22:08;13.60;99.90
47857;DHT22;33618;49.972;8.242;2023-04-29T10:24:42;13.50;99.90
47857;DHT22;33618;49.972;8.242;2023-04-29T10:27:12;13.40;99.90
47857;DHT22;33618;49.972;8.242;2023-04-29T10:29:40;13.30;99.90
47857;DHT22;33618;49.972;8.242;2023-04-29T10:32:13;13.20;99.90
47857;DHT22;33618;49.972;8.242;2023-04-29T10:34:41;13.00;99.90
47857;DHT22;33618;49.972;8.242;2023-04-29T10:37:09;12.80;99.90
47857;DHT22;33618;49.972;8.242;2023-04-29T10:39:52;12.80;99.90
47857;DHT22;33618;49.972;8.242;2023-04-29T10:53:17;13.00;99.90
47857;DHT22;33618;49.972;8.242;2023-04-29T10:55:58;13.00;99.90
47857;DHT22;33618;49.972;8.242;2023-04-29T10:58:41;13.00;99.90
47857;DHT22;33618;49.972;8.242;2023-04-29T11:01:15;13.10;99.90
47857;DHT22;33618;49.972;8.242;2023-04-29T11:03:53;13.00;99.90
47857;DHT22;33618;49.972;8.242;2023-04-29T11:06:50;13.20;99.90
47857;DHT22;33618;49.972;8.242;2023-04-29T11:09:20;13.30;99.90
47857;DHT22;33618;49.972;8.242;2023-04-29T11:14:30;13.40;99.90
47857;DHT22;33618;49.972;8.242;2023-04-29T11:17:02;13.60;99.90
47857;DHT22;33618;49.972;8.242;2023-04-29T11:19:43;13.70;99.90
47857;DHT22;33618;49.972;8.242;2023-04-29T11:22:33;13.90;99.90
47857;DHT22;33618;49.972;8.242;2023-04-29T11:25:02;14.00;99.90
47857;DHT22;33618;49.972;8.242;2023-04-29T11:27:31;14.30;99.90
47857;DHT22;33618;49.972;8.242;2023-04-29T11:30:05;14.40;99.90
47857;DHT22;33618;49.972;8.242;2023-04-29T11:32:35;14.60;99.90
47857;DHT22;33618;49.972;8.242;2023-04-29T11:35:14;14.80;99.90
47857;DHT22;33618;49.972;8.242;2023-04-29T11:37:43;14.70;99.90
47857;DHT22;33618;49.972;8.242;2023-04-29T11:40:11;14.70;99.90
47857;DHT22;33618;49.972;8.242;2023-04-29T11:42:49;14.70;99.90
47857;DHT22;33618;49.972;8.242;2023-04-29T11:45:17;14.60;99.90
47857;DHT22;33618;49.972;8.242;2023-04-29T11:47:45;14.70;99.90
47857;DHT22;33618;49.972;8.242;2023-04-29T11:50:14;14.70;99.90
47857;DHT22;33618;49.972;8.242;2023-04-29T11:52:48;14.60;99.90
47857;DHT22;33618;49.972;8.242;2023-04-29T11:55:15;15.20;99.90
47857;DHT22;33618;49.972;8.242;2023-04-29T11:57:47;15.80;99.90
47857;DHT22;33618;49.972;8.242;2023-04-29T12:00:15;16.20;99.90
47857;DHT22;33618;49.972;8.242;2023-04-29T12:02:45;16.30;99.90
47857;DHT22;33618;49.972;8.242;2023-04-29T12:05:15;16.40;99.90
47857;DHT22;33618;49.972;8.242;2023-04-29T12:07:44;16.30;99.90
47857;DHT22;33618;49.972;8.242;2023-04-29T12:10:11;16.40;99.90
47857;DHT22;33618;49.972;8.242;2023-04-29T12:12:38;16.70;99.90
47857;DHT22;33618;49.972;8.242;2023-04-29T12:15:14;16.90;99.30
47857;DHT22;33618;49.972;8.242;2023-04-29T12:17:41;17.30;96.70
47857;DHT22;33618;49.972;8.242;2023-04-29T12:20:10;17.90;96.10
47857;DHT22;33618;49.972;8.242;2023-04-29T12:22:40;18.10;97.30
47857;DHT22;33618;49.972;8.242;2023-04-29T12:25:09;18.70;94.90
47857;DHT22;33618;49.972;8.242;2023-04-29T12:27:39;18.90;92.70
47857;DHT22;33618;49.972;8.242;2023-04-29T12:30:19;19.10;93.20
47857;DHT22;33618;49.972;8.242;2023-04-29T12:32:48;19.10;92.50
47857;DHT22;33618;49.972;8.242;2023-04-29T12:35:17;18.40;93.40
47857;DHT22;33618;49.972;8.242;2023-04-29T12:37:47;18.00;95.20
47857;DHT22;33618;49.972;8.242;2023-04-29T12:40:16;17.80;96.40
47857;DHT22;33618;49.972;8.242;2023-04-29T12:42:46;16.90;96.40
47857;DHT22;33618;49.972;8.242;2023-04-29T12:45:26;16.80;99.30
47857;DHT22;33618;49.972;8.242;2023-04-29T12:47:55;17.30;98.70
47857;DHT22;33618;49.972;8.242;2023-04-29T12:50:31;18.00;97.20
47857;DHT22;33618;49.972;8.242;2023-04-29T12:52:59;18.20;93.20
47857;DHT22;33618;49.972;8.242;2023-04-29T12:55:26;17.90;94.10
47857;DHT22;33618;49.972;8.242;2023-04-29T12:57:53;17.90;94.70
47857;DHT22;33618;49.972;8.242;2023-04-29T13:00:20;17.50;95.90
47857;DHT22;33618;49.972;8.242;2023-04-29T13:02:47;17.10;96.30
47857;DHT22;33618;49.972;8.242;2023-04-29T13:05:14;16.60;98.90
47857;DHT22;33618;49.972;8.242;2023-04-29T13:07:41;16.30;99.40
47857;DHT22;33618;49.972;8.242;2023-04-29T13:10:09;16.10;99.90
47857;DHT22;33618;49.972;8.242;2023-04-29T13:12:38;15.80;99.90
47857;DHT22;33618;49.972;8.242;2023-04-29T13:15:06;15.90;99.90
47857;DHT22;33618;49.972;8.242;2023-04-29T13:17:35;15.90;99.90
47857;DHT22;33618;49.972;8.242;2023-04-29T13:20:03;15.80;99.90
47857;DHT22;33618;49.972;8.242;2023-04-29T13:22:31;15.60;99.90
47857;DHT22;33618;49.972;8.242;2023-04-29T13:24:58;15.60;99.90
47857;DHT22;33618;49.972;8.242;2023-04-29T13:27:25;15.70;99.90
47857;DHT22;33618;49.972;8.242;2023-04-29T13:29:52;15.80;99.90
47857;DHT22;33618;49.972;8.242;2023-04-29T13:32:19;16.00;99.90
47857;DHT22;33618;49.972;8.242;2023-04-29T13:34:49;16.30;99.90
47857;DHT22;33618;49.972;8.242;2023-04-29T13:37:18;16.50;99.70
47857;DHT22;33618;49.972;8.242;2023-04-29T13:39:47;16.50;98.00
47857;DHT22;33618;49.972;8.242;2023-04-29T13:42:26;16.60;97.90
47857;DHT22;33618;49.972;8.242;2023-04-29T13:44:53;17.10;97.40
47857;DHT22;33618;49.972;8.242;2023-04-29T13:47:22;18.00;96.00
47857;DHT22;33618;49.972;8.242;2023-04-29T13:49:53;18.40;93.90
47857;DHT22;33618;49.972;8.242;2023-04-29T13:52:44;18.90;93.40
47857;DHT22;33618;49.972;8.242;2023-04-29T13:55:15;19.10;92.90
47857;DHT22;33618;49.972;8.242;2023-04-29T13:58:02;19.50;92.40
47857;DHT22;33618;49.972;8.242;2023-04-29T14:00:37;19.90;90.70
47857;DHT22;33618;49.972;8.242;2023-04-29T14:03:26;20.20;90.90
47857;DHT22;33618;49.972;8.242;2023-04-29T14:05:55;19.70;90.10
47857;DHT22;33618;49.972;8.242;2023-04-29T14:08:22;19.20;91.40
47857;DHT22;33618;49.972;8.242;2023-04-29T14:10:49;18.80;91.70
47857;DHT22;33618;49.972;8.242;2023-04-29T14:13:16;19.40;92.70
47857;DHT22;33618;49.972;8.242;2023-04-29T14:15:44;20.10;91.70
47857;DHT22;33618;49.972;8.242;2023-04-29T14:18:10;20.20;88.60
47857;DHT22;33618;49.972;8.242;2023-04-29T14:20:37;20.50;88.60
47857;DHT22;33618;49.972;8.242;2023-04-29T14:23:04;20.30;88.20
47857;DHT22;33618;49.972;8.242;2023-04-29T14:25:31;20.10;88.90
47857;DHT22;33618;49.972;8.242;2023-04-29T14:27:59;19.80;88.60
47857;DHT22;33618;49.972;8.242;2023-04-29T14:30:26;19.50;90.00
47857;DHT22;33618;49.972;8.242;2023-04-29T14:32:53;19.50;90.00
47857;DHT22;33618;49.972;8.242;2023-04-29T14:35:26;19.50;90.20
47857;DHT22;33618;49.972;8.242;2023-04-29T14:37:52;19.50;90.20
47857;DHT22;33618;49.972;8.242;2023-04-29T14:40:19;19.40;90.00
47857;DHT22;33618;49.972;8.242;2023-04-29T14:42:54;18.90;90.30
47857;DHT22;33618;49.972;8.242;2023-04-29T14:45:22;19.20;91.10
47857;DHT22;33618;49.972;8.242;2023-04-29T14:47:49;19.30;88.40
47857;DHT22;33618;49.972;8.242;2023-04-29T14:50:17;19.50;90.30
47857;DHT22;33618;49.972;8.242;2023-04-29T14:52:48;19.70;90.30
47857;DHT22;33618;49.972;8.242;2023-04-29T14:55:15;19.80;90.40
47857;DHT22;33618;49.972;8.242;2023-04-29T14:57:43;19.50;88.90
47857;DHT22;33618;49.972;8.242;2023-04-29T15:00:10;19.10;88.80
47857;DHT22;33618;49.972;8.242;2023-04-29T15:02:37;18.50;90.70
47857;DHT22;33618;49.972;8.242;2023-04-29T15:05:05;18.40;92.50
47857;DHT22;33618;49.972;8.242;2023-04-29T15:07:32;18.30;91.60
47857;DHT22;33618;49.972;8.242;2023-04-29T15:09:59;18.20;92.10
47857;DHT22;33618;49.972;8.242;2023-04-29T15:12:26;17.90;92.20
47857;DHT22;33618;49.972;8.242;2023-04-29T15:14:53;17.50;93.30
47857;DHT22;33618;49.972;8.242;2023-04-29T15:17:20;17.50;94.30
47857;DHT22;33618;49.972;8.242;2023-04-29T15:19:47;17.60;94.50
47857;DHT22;33618;49.972;8.242;2023-04-29T15:22:14;17.70;94.60
47857;DHT22;33618;49.972;8.242;2023-04-29T15:24:41;17.80;94.40
47857;DHT22;33618;49.972;8.242;2023-04-29T15:27:08;17.90;93.30
47857;DHT22;33618;49.972;8.242;2023-04-29T15:29:35;17.60;93.90
47857;DHT22;33618;49.972;8.242;2023-04-29T15:32:03;17.50;93.70
47857;DHT22;33618;49.972;8.242;2023-04-29T15:34:30;17.30;94.60
47857;DHT22;33618;49.972;8.242;2023-04-29T15:36:57;17.20;95.60
47857;DHT22;33618;49.972;8.242;2023-04-29T15:39:27;17.10;94.70
47857;DHT22;33618;49.972;8.242;2023-04-29T15:41:55;17.20;95.20
47857;DHT22;33618;49.972;8.242;2023-04-29T15:44:24;17.20;95.60
47857;DHT22;33618;49.972;8.242;2023-04-29T15:46:50;17.30;95.00
47857;DHT22;33618;49.972;8.242;2023-04-29T15:49:17;17.30;95.80
47857;DHT22;33618;49.972;8.242;2023-04-29T15:51:47;17.30;95.50
47857;DHT22;33618;49.972;8.242;2023-04-29T15:54:17;17.30;96.10
47857;DHT22;33618;49.972;8.242;2023-04-29T15:56:44;17.20;96.30
47857;DHT22;33618;49.972;8.242;2023-04-29T15:59:11;17.00;96.70
47857;DHT22;33618;49.972;8.242;2023-04-29T16:01:37;16.80;97.20
47857;DHT22;33618;49.972;8.242;2023-04-29T16:04:05;16.70;97.70
47857;DHT22;33618;49.972;8.242;2023-04-29T16:06:33;16.60;98.40
47857;DHT22;33618;49.972;8.242;2023-04-29T16:09:00;16.40;98.90
47857;DHT22;33618;49.972;8.242;2023-04-29T16:11:29;16.30;98.20